Rockton, Pennsylvania
Current Conditions -  °F | °C
As of 9:30 PM on Monday 22 Dec 2014 (Local Time) from KFIG Reporting Station
Haze Haze  
Wind Chill: 25°   Ceiling: 1000
Heat Index: 30°   Visibility: 5mi
Dew Point: 29°   Wind: 5mph
Humidity: 96%   Direction: 30°NNE
Pressure: 30.08"   Gusts: NA
Location:  41.08°N, 78.65°W
Report Text: KFIG 230230Z AUTO 03004KT 5SM BR OVC010 M01/M02 A3008 RMK AO2 I1000 T10111017
Loading
Personal Weather Stations






























Interactive Weather Map New forecast layout! Learn more

10-Day Weather Forecast

Advertisements
Track Severe Weather on mobile